Time;durP1;ratioP1;P1;durP2;ratioP2;P2;SDS_P1;SDS_P2;PMS_P1;PMS_P2;Temp;Humidity;BMP_temperature;BMP_pressure;BME280_temperature;BME280_humidity;BME280_pressure;Samples;Min_cycle;Max_cycle;Signal;HPM_P1;HPM_P2
2024/04/19 00:00:27;;;;;;;0.20;0.10;;;;;;;;;;5488866;25;20545;-79
2024/04/19 00:02:53;;;;;;;0.20;0.10;;;;;;;;;;5484371;25;20458;-80
2024/04/19 00:05:19;;;;;;;0.30;0.30;;;;;;;;;;5490151;25;20001;-78
2024/04/19 00:07:47;;;;;;;0.20;0.00;;;;;;;;;;5469271;26;20002;-80
2024/04/19 00:10:13;;;;;;;0.20;0.00;;;;;;;;;;5460655;25;19994;-80
2024/04/19 00:12:39;;;;;;;0.20;0.10;;;;;;;;;;5487239;25;20068;-78
2024/04/19 00:15:06;;;;;;;0.20;0.00;;;;;;;;;;5459007;26;19993;-79
2024/04/19 00:17:34;;;;;;;0.20;0.10;;;;;;;;;;5489854;25;20335;-80
2024/04/19 00:20:00;;;;;;;0.20;0.10;;;;;;;;;;5463031;26;20013;-80
2024/04/19 00:22:46;;;;;;;0.20;0.08;;;;;;;;;;5441555;25;20076;-80
2024/04/19 00:25:12;;;;;;;0.20;0.10;;;;;;;;;;5493741;25;19997;-80
2024/04/19 00:27:38;;;;;;;0.20;0.10;;;;;;;;;;5465573;26;20736;-79
2024/04/19 00:30:04;;;;;;;0.20;0.10;;;;;;;;;;5456054;26;19998;-82
2024/04/19 00:32:31;;;;;;;0.20;0.00;;;;;;;;;;5492020;25;20074;-80
2024/04/19 00:34:57;;;;;;;0.20;0.10;;;;;;;;;;5487504;25;20361;-80
2024/04/19 00:37:23;;;;;;;0.20;0.10;;;;;;;;;;5486772;25;20929;-78
2024/04/19 00:39:49;;;;;;;0.35;0.15;;;;;;;;;;5488029;25;19993;-78
2024/04/19 00:42:15;;;;;;;0.30;0.28;;;;;;;;;;5489165;25;20044;-79
2024/04/19 00:44:41;;;;;;;0.20;0.10;;;;;;;;;;5477203;26;20359;-81
2024/04/19 00:47:08;;;;;;;0.20;0.10;;;;;;;;;;5458000;26;19993;-78
2024/04/19 00:49:34;;;;;;;0.20;0.00;;;;;;;;;;5488498;25;19994;-79
2024/04/19 00:52:01;;;;;;;0.38;0.32;;;;;;;;;;5470747;26;20034;-80
2024/04/19 00:54:27;;;;;;;0.20;0.05;;;;;;;;;;5466382;25;20816;-79
2024/04/19 00:56:54;;;;;;;0.20;0.10;;;;;;;;;;5492162;25;20546;-80
2024/04/19 00:59:20;;;;;;;0.20;0.10;;;;;;;;;;5470034;25;20006;-81
2024/04/19 01:01:47;;;;;;;0.20;0.15;;;;;;;;;;5486455;25;20006;-80
2024/04/19 01:04:13;;;;;;;0.20;0.00;;;;;;;;;;5489088;25;20003;-79
2024/04/19 01:06:59;;;;;;;0.20;0.10;;;;;;;;;;5475368;26;19997;-81
2024/04/19 01:09:26;;;;;;;0.20;0.10;;;;;;;;;;5456041;25;20331;-77
2024/04/19 01:11:52;;;;;;;0.20;0.10;;;;;;;;;;5496548;25;20442;-79
2024/04/19 01:14:18;;;;;;;0.20;0.00;;;;;;;;;;5473345;25;19997;-79
2024/04/19 01:16:44;;;;;;;0.20;0.10;;;;;;;;;;5488935;25;19998;-78
2024/04/19 01:19:10;;;;;;;0.20;0.10;;;;;;;;;;5451030;26;19998;-80
2024/04/19 01:21:37;;;;;;;0.20;0.10;;;;;;;;;;5490689;25;20352;-79
2024/04/19 01:24:12;;;;;;;0.30;0.20;;;;;;;;;;5494269;25;20002;-80
2024/04/19 01:26:38;;;;;;;0.65;0.60;;;;;;;;;;5485806;25;20096;-79
2024/04/19 01:29:04;;;;;;;0.20;0.10;;;;;;;;;;5493136;25;20468;-79
2024/04/19 01:31:31;;;;;;;0.20;0.05;;;;;;;;;;5485573;25;20014;-79
2024/04/19 01:33:57;;;;;;;0.20;0.10;;;;;;;;;;5490909;25;19994;-81
2024/04/19 01:36:23;;;;;;;0.20;0.10;;;;;;;;;;5463384;25;19998;-80
2024/04/19 01:38:49;;;;;;;2.15;0.85;;;;;;;;;;5496203;25;20005;-78
2024/04/19 01:41:15;;;;;;;0.20;0.00;;;;;;;;;;5485724;25;20001;-79
2024/04/19 01:43:42;;;;;;;0.20;0.00;;;;;;;;;;5490372;25;20006;-79
2024/04/19 01:46:09;;;;;;;0.20;0.10;;;;;;;;;;5493216;25;20006;-82
2024/04/19 01:48:35;;;;;;;0.20;0.10;;;;;;;;;;5492659;25;22012;-79
2024/04/19 01:51:01;;;;;;;0.20;0.03;;;;;;;;;;5493171;25;20001;-78
2024/04/19 01:53:27;;;;;;;0.20;0.05;;;;;;;;;;5487538;25;20005;-78
2024/04/19 01:55:53;;;;;;;0.20;0.10;;;;;;;;;;5458386;26;20032;-78
2024/04/19 01:58:19;;;;;;;0.20;0.00;;;;;;;;;;5455854;25;19998;-79
2024/04/19 02:00:45;;;;;;;0.20;0.10;;;;;;;;;;5484682;25;20006;-80
2024/04/19 02:03:11;;;;;;;0.20;0.10;;;;;;;;;;5482822;25;20071;-79
2024/04/19 02:05:37;;;;;;;0.20;0.10;;;;;;;;;;5487179;25;19994;-80
2024/04/19 02:08:03;;;;;;;0.20;0.10;;;;;;;;;;5482626;25;20477;-81
2024/04/19 02:10:34;;;;;;;0.20;0.00;;;;;;;;;;5461403;25;20020;-79
2024/04/19 02:13:00;;;;;;;0.20;0.10;;;;;;;;;;5488935;25;20074;-80
2024/04/19 02:15:26;;;;;;;0.20;0.10;;;;;;;;;;5468039;25;20004;-78
2024/04/19 02:17:52;;;;;;;0.20;0.03;;;;;;;;;;5470429;26;20593;-81
2024/04/19 02:20:38;;;;;;;0.20;0.10;;;;;;;;;;5439508;25;20006;-83
2024/04/19 02:23:04;;;;;;;0.20;0.00;;;;;;;;;;5489333;25;20481;-78
2024/04/19 02:25:30;;;;;;;0.20;0.20;;;;;;;;;;5471799;25;20006;-78
2024/04/19 02:30:59;;;;;;;0.20;0.10;;;;;;;;;;5494615;25;20048;-81
2024/04/19 02:33:26;;;;;;;0.20;0.10;;;;;;;;;;5474755;25;20006;-80
2024/04/19 02:35:52;;;;;;;0.20;0.10;;;;;;;;;;5458542;26;19995;-82
2024/04/19 02:38:19;;;;;;;0.57;0.57;;;;;;;;;;5489812;25;20001;-80
2024/04/19 02:40:45;;;;;;;0.20;0.17;;;;;;;;;;5468673;26;20015;-79
2024/04/19 02:43:31;;;;;;;0.20;0.10;;;;;;;;;;5452913;25;20071;-81
2024/04/19 02:46:04;;;;;;;0.20;0.10;;;;;;;;;;5487423;25;19998;-79
2024/04/19 02:48:30;;;;;;;0.20;0.10;;;;;;;;;;5492576;25;20341;-79
2024/04/19 02:50:57;;;;;;;0.20;0.03;;;;;;;;;;5470801;26;19993;-79
2024/04/19 02:53:23;;;;;;;0.20;0.00;;;;;;;;;;5465737;25;20002;-81
2024/04/19 02:55:50;;;;;;;0.20;0.00;;;;;;;;;;5488648;25;20599;-80
2024/04/19 02:58:17;;;;;;;0.20;0.15;;;;;;;;;;5498283;25;20342;-79
2024/04/19 03:00:43;;;;;;;0.20;0.10;;;;;;;;;;5451084;25;20756;-79
2024/04/19 03:03:09;;;;;;;0.20;0.10;;;;;;;;;;5493071;25;20009;-82
2024/04/19 03:05:36;;;;;;;0.20;0.10;;;;;;;;;;5472872;25;19998;-79
2024/04/19 03:08:03;;;;;;;0.30;0.20;;;;;;;;;;5484131;25;20001;-78
2024/04/19 03:10:49;;;;;;;0.20;0.00;;;;;;;;;;5458156;25;20051;-80
2024/04/19 03:13:16;;;;;;;0.20;0.10;;;;;;;;;;5486956;25;20050;-79
2024/04/19 03:16:06;;;;;;;0.20;0.00;;;;;;;;;;5444063;25;20084;-82
2024/04/19 03:18:32;;;;;;;0.20;0.00;;;;;;;;;;5485127;25;20008;-80
2024/04/19 03:21:18;;;;;;;0.20;0.10;;;;;;;;;;5439980;26;20047;-82
2024/04/19 03:23:44;;;;;;;0.20;0.10;;;;;;;;;;5481995;25;20001;-81
2024/04/19 03:26:11;;;;;;;0.20;0.10;;;;;;;;;;5484424;25;20016;-79
2024/04/19 03:28:37;;;;;;;0.20;0.10;;;;;;;;;;5468446;25;20470;-80
2024/04/19 03:31:07;;;;;;;0.20;0.00;;;;;;;;;;5494162;25;20010;-80
2024/04/19 03:33:33;;;;;;;0.20;0.10;;;;;;;;;;5456163;25;20046;-79
2024/04/19 03:36:02;;;;;;;0.20;0.10;;;;;;;;;;5471311;25;20012;-82
2024/04/19 03:38:30;;;;;;;0.20;0.10;;;;;;;;;;5489344;25;20001;-80
2024/04/19 03:40:57;;;;;;;0.20;0.10;;;;;;;;;;5491978;25;20009;-81
2024/04/19 03:45:40;;;;;;;0.20;0.10;;;;;;;;;;5474121;25;20033;-82
2024/04/19 03:46:29;;;;;;;0.20;0.00;;;;;;;;;;5493843;25;20002;-80
2024/04/19 03:48:56;;;;;;;0.20;0.10;;;;;;;;;;5461924;26;20008;-82
2024/04/19 03:51:22;;;;;;;0.20;0.10;;;;;;;;;;5461487;26;20488;-80
2024/04/19 03:53:48;;;;;;;0.20;0.00;;;;;;;;;;5471965;25;19998;-80
2024/04/19 03:56:32;;;;;;;0.20;0.00;;;;;;;;;;5497264;25;20457;-80
2024/04/19 03:59:08;;;;;;;0.20;0.10;;;;;;;;;;5461686;26;20028;-80
2024/04/19 04:01:34;;;;;;;0.20;0.10;;;;;;;;;;5495392;25;20006;-80
2024/04/19 04:04:00;;;;;;;0.20;0.10;;;;;;;;;;5489942;25;20009;-80
2024/04/19 04:06:27;;;;;;;0.20;0.00;;;;;;;;;;5491753;25;20001;-80
2024/04/19 04:08:54;;;;;;;0.20;0.13;;;;;;;;;;5493341;25;20013;-79
2024/04/19 04:11:20;;;;;;;0.20;0.10;;;;;;;;;;5492550;25;20875;-80
2024/04/19 04:13:47;;;;;;;0.20;0.00;;;;;;;;;;5484090;25;20005;-79
2024/04/19 04:16:13;;;;;;;0.20;0.03;;;;;;;;;;5452402;26;20580;-80
2024/04/19 04:18:39;;;;;;;0.20;0.03;;;;;;;;;;5457916;25;20047;-80
2024/04/19 04:21:05;;;;;;;0.20;0.10;;;;;;;;;;5478070;25;20071;-81
2024/04/19 04:23:31;;;;;;;0.45;0.32;;;;;;;;;;5455983;25;20149;-80
2024/04/19 04:25:58;;;;;;;0.20;0.10;;;;;;;;;;5447446;26;20741;-81
2024/04/19 04:28:24;;;;;;;0.20;0.10;;;;;;;;;;5465585;26;20037;-80
2024/04/19 04:30:51;;;;;;;0.20;0.10;;;;;;;;;;5467193;25;20001;-78
2024/04/19 04:33:17;;;;;;;0.20;0.00;;;;;;;;;;5482422;25;20472;-79
2024/04/19 04:35:46;;;;;;;0.20;0.10;;;;;;;;;;5450842;25;20001;-78
2024/04/19 04:38:12;;;;;;;0.20;0.10;;;;;;;;;;5481281;25;20016;-78
2024/04/19 04:40:39;;;;;;;0.20;0.08;;;;;;;;;;5480536;25;20006;-82
2024/04/19 04:43:05;;;;;;;0.20;0.10;;;;;;;;;;5480815;25;20404;-81
2024/04/19 04:45:31;;;;;;;0.20;0.10;;;;;;;;;;5479615;25;20006;-81
2024/04/19 04:47:57;;;;;;;0.20;0.08;;;;;;;;;;5478937;25;19994;-80
2024/04/19 04:50:24;;;;;;;0.20;0.10;;;;;;;;;;5477548;25;20002;-80
2024/04/19 04:52:56;;;;;;;0.20;0.10;;;;;;;;;;5474694;25;20078;-81
2024/04/19 04:55:22;;;;;;;0.20;0.10;;;;;;;;;;5481577;25;20016;-79
2024/04/19 04:57:48;;;;;;;0.20;0.10;;;;;;;;;;5480459;25;20020;-78
2024/04/19 05:00:14;;;;;;;0.20;0.10;;;;;;;;;;5485578;20;20023;-80
2024/04/19 05:02:40;;;;;;;0.20;0.10;;;;;;;;;;5415483;26;20003;-80
2024/04/19 05:05:06;;;;;;;0.20;0.10;;;;;;;;;;5422907;26;22350;-80
2024/04/19 05:07:32;;;;;;;0.20;0.10;;;;;;;;;;5425370;26;20064;-81
2024/04/19 05:09:58;;;;;;;0.20;0.10;;;;;;;;;;5426197;26;20003;-80
2024/04/19 05:12:24;;;;;;;0.20;0.03;;;;;;;;;;5418312;26;20378;-80
2024/04/19 05:14:51;;;;;;;0.40;0.10;;;;;;;;;;5420625;26;20011;-80
2024/04/19 05:17:17;;;;;;;0.20;0.00;;;;;;;;;;5422870;26;20014;-79
2024/04/19 05:19:43;;;;;;;0.20;0.10;;;;;;;;;;5400825;26;20019;-80
2024/04/19 05:22:10;;;;;;;0.20;0.08;;;;;;;;;;5425661;26;20890;-80
2024/04/19 05:24:36;;;;;;;0.20;0.10;;;;;;;;;;5418523;26;19999;-79
2024/04/19 05:27:02;;;;;;;0.20;0.10;;;;;;;;;;5428532;26;20381;-80
2024/04/19 05:29:28;;;;;;;0.20;0.10;;;;;;;;;;5431465;26;20014;-80
2024/04/19 05:31:55;;;;;;;0.20;0.10;;;;;;;;;;5426496;26;20006;-80
2024/04/19 05:34:21;;;;;;;0.20;0.10;;;;;;;;;;5426645;26;20007;-79
2024/04/19 05:36:47;;;;;;;0.20;0.00;;;;;;;;;;5434811;26;20011;-80
2024/04/19 05:39:13;;;;;;;0.22;0.08;;;;;;;;;;5431637;26;20022;-80
2024/04/19 05:41:39;;;;;;;0.20;0.10;;;;;;;;;;5460618;26;20274;-83
2024/04/19 05:44:06;;;;;;;0.20;0.10;;;;;;;;;;5427391;26;20010;-82
2024/04/19 05:46:34;;;;;;;0.20;0.10;;;;;;;;;;5434952;26;20611;-79
2024/04/19 05:49:01;;;;;;;0.20;0.10;;;;;;;;;;5431025;26;20478;-82
2024/04/19 05:51:27;;;;;;;0.20;0.00;;;;;;;;;;5436938;26;20003;-83
2024/04/19 05:53:53;;;;;;;0.20;0.05;;;;;;;;;;5442002;26;19995;-80
2024/04/19 05:56:19;;;;;;;0.20;0.10;;;;;;;;;;5441314;26;20013;-80
2024/04/19 05:58:46;;;;;;;0.22;0.17;;;;;;;;;;5433661;26;20010;-81
2024/04/19 06:01:12;;;;;;;0.20;0.00;;;;;;;;;;5425702;26;20076;-83
2024/04/19 06:03:38;;;;;;;0.20;0.10;;;;;;;;;;5435284;26;20010;-81
2024/04/19 06:06:04;;;;;;;0.20;0.10;;;;;;;;;;5442392;26;20454;-83
2024/04/19 06:08:30;;;;;;;0.20;0.00;;;;;;;;;;5427233;26;20397;-84
2024/04/19 06:10:57;;;;;;;0.20;0.00;;;;;;;;;;5438972;26;19996;-81
2024/04/19 06:13:23;;;;;;;0.20;0.10;;;;;;;;;;5443903;26;20010;-80
2024/04/19 06:15:51;;;;;;;0.20;0.00;;;;;;;;;;5440106;26;20023;-83
2024/04/19 06:18:17;;;;;;;0.20;0.10;;;;;;;;;;5437638;26;20010;-83
2024/04/19 06:20:43;;;;;;;0.20;0.00;;;;;;;;;;5443578;26;20736;-82
2024/04/19 06:23:09;;;;;;;0.20;0.00;;;;;;;;;;5441898;26;19999;-82
2024/04/19 06:25:35;;;;;;;0.20;0.05;;;;;;;;;;5443145;26;20474;-83
2024/04/19 06:28:01;;;;;;;0.20;0.10;;;;;;;;;;5436682;26;20008;-82
2024/04/19 06:30:28;;;;;;;0.20;0.03;;;;;;;;;;5442327;26;20002;-84
2024/04/19 06:32:54;;;;;;;0.20;0.10;;;;;;;;;;5440291;26;20481;-82
2024/04/19 06:35:21;;;;;;;0.20;0.10;;;;;;;;;;5450481;26;20011;-83
2024/04/19 06:37:48;;;;;;;0.20;0.10;;;;;;;;;;5426797;26;19996;-85
2024/04/19 06:40:14;;;;;;;0.20;0.10;;;;;;;;;;5447317;26;20003;-82
2024/04/19 06:42:40;;;;;;;0.20;0.10;;;;;;;;;;5431818;26;20011;-80
2024/04/19 06:45:06;;;;;;;0.20;0.10;;;;;;;;;;5436672;26;20011;-81
2024/04/19 06:47:33;;;;;;;0.20;0.10;;;;;;;;;;5443825;26;20017;-84
2024/04/19 06:50:02;;;;;;;0.20;0.00;;;;;;;;;;5429343;26;20460;-83
2024/04/19 06:52:28;;;;;;;0.20;0.05;;;;;;;;;;5440262;26;20084;-85
2024/04/19 06:54:54;;;;;;;0.20;0.00;;;;;;;;;;5437674;26;20002;-83
2024/04/19 06:57:20;;;;;;;0.20;0.05;;;;;;;;;;5441324;26;20003;-82
2024/04/19 06:59:48;;;;;;;0.20;0.00;;;;;;;;;;5434566;26;20016;-84
2024/04/19 07:02:15;;;;;;;0.20;0.00;;;;;;;;;;5436327;26;20012;-86
2024/04/19 07:04:42;;;;;;;0.20;0.00;;;;;;;;;;5436987;26;20011;-85
2024/04/19 07:07:08;;;;;;;0.20;0.08;;;;;;;;;;5444281;26;20485;-82
2024/04/19 07:09:34;;;;;;;0.20;0.10;;;;;;;;;;5440267;26;20003;-84
2024/04/19 07:12:01;;;;;;;0.20;0.00;;;;;;;;;;5441063;26;20026;-84
2024/04/19 07:14:27;;;;;;;0.20;0.10;;;;;;;;;;5440873;26;20428;-86
2024/04/19 07:16:54;;;;;;;0.20;0.00;;;;;;;;;;5443867;26;20003;-83
2024/04/19 07:19:20;;;;;;;0.20;0.08;;;;;;;;;;5444220;26;20345;-82
2024/04/19 07:21:46;;;;;;;0.20;0.10;;;;;;;;;;5435531;26;19999;-84
2024/04/19 07:24:12;;;;;;;0.20;0.00;;;;;;;;;;5420497;26;20018;-82
2024/04/19 07:26:39;;;;;;;0.20;0.10;;;;;;;;;;5427162;26;20476;-84
2024/04/19 07:29:08;;;;;;;0.20;0.00;;;;;;;;;;5434526;26;20011;-85
2024/04/19 07:31:34;;;;;;;0.20;0.10;;;;;;;;;;5442462;26;19995;-83
2024/04/19 07:34:00;;;;;;;0.20;0.00;;;;;;;;;;5443645;26;19999;-85
2024/04/19 07:36:26;;;;;;;0.20;0.00;;;;;;;;;;5441212;26;20045;-83
2024/04/19 07:38:53;;;;;;;0.20;0.10;;;;;;;;;;5432843;26;19994;-87
2024/04/19 07:41:19;;;;;;;0.20;0.10;;;;;;;;;;5436637;26;20007;-84
2024/04/19 07:43:45;;;;;;;0.20;0.10;;;;;;;;;;5436108;26;20037;-86
2024/04/19 07:46:16;;;;;;;0.20;0.00;;;;;;;;;;5439592;26;20047;-84
2024/04/19 07:48:42;;;;;;;0.20;0.10;;;;;;;;;;5444796;26;20467;-83
2024/04/19 07:51:11;;;;;;;0.20;0.10;;;;;;;;;;5430536;26;20418;-83
2024/04/19 07:53:37;;;;;;;0.20;0.00;;;;;;;;;;5434301;26;20012;-84
2024/04/19 07:56:04;;;;;;;0.20;0.00;;;;;;;;;;5434304;26;20073;-82
2024/04/19 07:58:30;;;;;;;0.20;0.10;;;;;;;;;;5434978;26;20351;-80
2024/04/19 08:00:56;;;;;;;0.20;0.00;;;;;;;;;;5430238;26;20003;-84
2024/04/19 08:03:23;;;;;;;0.20;0.00;;;;;;;;;;5436070;26;19995;-82
2024/04/19 08:05:50;;;;;;;0.20;0.10;;;;;;;;;;5435541;26;20094;-82
2024/04/19 08:08:17;;;;;;;0.20;0.00;;;;;;;;;;5432773;26;19998;-83
2024/04/19 08:10:46;;;;;;;0.20;0.10;;;;;;;;;;5428013;26;20363;-85
2024/04/19 08:13:12;;;;;;;0.20;0.10;;;;;;;;;;5438228;26;20003;-83
2024/04/19 08:15:38;;;;;;;0.20;0.10;;;;;;;;;;5436358;26;20071;-83
2024/04/19 08:18:08;;;;;;;0.20;0.00;;;;;;;;;;5432082;26;20014;-83
2024/04/19 08:20:34;;;;;;;0.20;0.00;;;;;;;;;;5436166;26;20346;-80
2024/04/19 08:23:00;;;;;;;0.52;0.52;;;;;;;;;;5428657;26;20046;-84
2024/04/19 08:25:33;;;;;;;0.20;0.00;;;;;;;;;;5429909;26;20447;-83
2024/04/19 08:28:00;;;;;;;0.20;0.10;;;;;;;;;;5430600;26;19999;-85
2024/04/19 08:30:26;;;;;;;0.20;0.00;;;;;;;;;;5435127;26;20018;-81
2024/04/19 08:32:52;;;;;;;0.20;0.05;;;;;;;;;;5423068;26;20007;-85
2024/04/19 08:35:18;;;;;;;0.20;0.00;;;;;;;;;;5410910;26;19999;-85
2024/04/19 08:37:44;;;;;;;0.20;0.10;;;;;;;;;;5433863;26;20016;-82
2024/04/19 08:40:12;;;;;;;0.20;0.00;;;;;;;;;;5443440;26;20004;-85
2024/04/19 08:42:38;;;;;;;0.20;0.00;;;;;;;;;;5434963;26;20035;-83
2024/04/19 08:45:06;;;;;;;0.20;0.00;;;;;;;;;;5445735;26;19998;-83
2024/04/19 08:47:35;;;;;;;0.20;0.00;;;;;;;;;;5441554;26;20011;-86
2024/04/19 08:50:04;;;;;;;0.20;0.10;;;;;;;;;;5431658;26;20028;-85
2024/04/19 08:52:31;;;;;;;0.20;0.10;;;;;;;;;;5441017;26;19994;-83
2024/04/19 08:55:05;;;;;;;0.20;0.00;;;;;;;;;;5432277;26;20007;-86
2024/04/19 08:57:35;;;;;;;0.20;0.00;;;;;;;;;;5430595;26;20018;-84
2024/04/19 09:00:06;;;;;;;0.20;0.10;;;;;;;;;;5423956;26;20011;-84
2024/04/19 09:02:32;;;;;;;0.20;0.10;;;;;;;;;;5429457;26;19999;-85
2024/04/19 09:05:01;;;;;;;0.20;0.08;;;;;;;;;;5437159;26;19998;-85
2024/04/19 09:07:40;;;;;;;;;;;;;;;;;;;;;
2024/04/19 09:10:08;;;;;;;0.20;0.10;;;;;;;;;;5433772;26;20006;-84
2024/04/19 09:12:34;;;;;;;0.20;0.10;;;;;;;;;;5433703;26;19995;-84
2024/04/19 09:15:00;;;;;;;0.20;0.10;;;;;;;;;;5443990;26;20026;-84
2024/04/19 09:17:41;;;;;;;0.20;0.00;;;;;;;;;;5445008;26;20420;-81
2024/04/19 09:20:11;;;;;;;0.20;0.08;;;;;;;;;;5430752;26;20557;-82
2024/04/19 09:22:40;;;;;;;0.20;0.10;;;;;;;;;;5430703;26;20010;-82
2024/04/19 09:25:13;;;;;;;0.20;0.00;;;;;;;;;;5434062;26;20010;-83
2024/04/19 09:27:49;;;;;;;0.20;0.00;;;;;;;;;;5438468;26;20007;-81
2024/04/19 09:30:24;;;;;;;0.20;0.10;;;;;;;;;;5438709;26;20014;-84
2024/04/19 09:32:54;;;;;;;0.20;0.00;;;;;;;;;;5434543;26;20010;-84
2024/04/19 09:35:24;;;;;;;0.20;0.00;;;;;;;;;;5439783;26;20003;-83
2024/04/19 09:37:51;;;;;;;0.20;0.08;;;;;;;;;;5429734;26;20002;-87
2024/04/19 09:40:18;;;;;;;0.20;0.10;;;;;;;;;;5433705;26;19995;-84
2024/04/19 09:42:48;;;;;;;0.30;0.25;;;;;;;;;;5400753;26;19995;-81
2024/04/19 09:45:18;;;;;;;0.20;0.00;;;;;;;;;;5431971;26;20003;-85
2024/04/19 09:47:45;;;;;;;0.20;0.10;;;;;;;;;;5433977;26;20031;-85
2024/04/19 09:50:11;;;;;;;0.20;0.10;;;;;;;;;;5432549;26;20493;-84
2024/04/19 09:52:39;;;;;;;0.20;0.00;;;;;;;;;;5430191;26;20439;-86
2024/04/19 09:55:08;;;;;;;0.20;0.08;;;;;;;;;;5400443;26;20035;-86
2024/04/19 09:57:38;;;;;;;0.20;0.03;;;;;;;;;;5403119;26;20328;-84
2024/04/19 10:00:05;;;;;;;0.20;0.10;;;;;;;;;;5435806;26;20031;-85
2024/04/19 10:02:33;;;;;;;0.20;0.10;;;;;;;;;;5433167;26;20555;-88
2024/04/19 10:04:59;;;;;;;0.20;0.00;;;;;;;;;;5408944;26;20022;-86
2024/04/19 10:07:48;;;;;;;0.20;0.00;;;;;;;;;;5435313;26;20021;-84
2024/04/19 10:10:19;;;;;;;0.20;0.00;;;;;;;;;;5439642;26;20474;-83
2024/04/19 10:12:48;;;;;;;0.20;0.10;;;;;;;;;;5445839;26;20777;-80
2024/04/19 10:15:19;;;;;;;0.20;0.10;;;;;;;;;;5434024;26;20010;-79
2024/04/19 10:17:45;;;;;;;0.20;0.00;;;;;;;;;;5435399;26;20327;-82
2024/04/19 10:20:12;;;;;;;0.20;0.00;;;;;;;;;;5443262;26;19998;-82
2024/04/19 10:22:41;;;;;;;0.20;0.10;;;;;;;;;;5433326;26;19995;-82
2024/04/19 10:25:07;;;;;;;0.20;0.10;;;;;;;;;;5436208;26;20014;-82
2024/04/19 10:27:34;;;;;;;0.20;0.10;;;;;;;;;;5445318;26;20010;-81
2024/04/19 10:30:04;;;;;;;0.20;0.05;;;;;;;;;;5436135;26;20297;-80
2024/04/19 10:32:30;;;;;;;0.20;0.10;;;;;;;;;;5438849;26;20010;-80
2024/04/19 10:34:56;;;;;;;0.20;0.10;;;;;;;;;;5433524;26;20046;-81
2024/04/19 10:37:22;;;;;;;0.20;0.00;;;;;;;;;;5435350;26;20037;-81
2024/04/19 10:39:48;;;;;;;0.20;0.00;;;;;;;;;;5436506;26;20364;-80
2024/04/19 10:42:18;;;;;;;0.20;0.10;;;;;;;;;;5440136;26;20009;-82
2024/04/19 10:44:46;;;;;;;0.20;0.10;;;;;;;;;;5438485;26;20015;-80
2024/04/19 10:47:13;;;;;;;0.20;0.10;;;;;;;;;;5430518;26;20000;-81
2024/04/19 10:49:39;;;;;;;0.20;0.00;;;;;;;;;;5443355;26;19998;-81
2024/04/19 10:52:05;;;;;;;0.20;0.10;;;;;;;;;;5434965;26;20006;-81
2024/04/19 10:54:31;;;;;;;0.20;0.00;;;;;;;;;;5432557;26;20000;-80
2024/04/19 10:56:58;;;;;;;0.20;0.00;;;;;;;;;;5437568;26;20010;-83
2024/04/19 10:59:24;;;;;;;0.20;0.00;;;;;;;;;;5431336;26;20356;-83
2024/04/19 11:01:53;;;;;;;0.20;0.00;;;;;;;;;;5479831;21;19998;-78
2024/04/19 11:04:19;;;;;;;0.20;0.00;;;;;;;;;;5476546;26;20010;-81
2024/04/19 11:06:45;;;;;;;0.20;0.10;;;;;;;;;;5499230;26;20466;-79
2024/04/19 11:09:12;;;;;;;0.20;0.10;;;;;;;;;;5506220;26;20593;-81
2024/04/19 11:11:38;;;;;;;0.20;0.10;;;;;;;;;;5471663;26;20095;-82
2024/04/19 11:14:07;;;;;;;0.20;0.00;;;;;;;;;;5496710;26;19994;-82
2024/04/19 11:16:33;;;;;;;0.20;0.00;;;;;;;;;;5482130;26;20029;-81
2024/04/19 11:18:59;;;;;;;0.20;0.10;;;;;;;;;;5481848;26;20004;-78
2024/04/19 11:21:28;;;;;;;0.20;0.10;;;;;;;;;;5493456;26;20024;-80
2024/04/19 11:23:54;;;;;;;0.20;0.00;;;;;;;;;;5500480;25;19998;-83
2024/04/19 11:26:21;;;;;;;0.22;0.03;;;;;;;;;;5495269;26;20345;-80
2024/04/19 11:28:47;;;;;;;0.20;0.10;;;;;;;;;;5495059;26;20005;-78
2024/04/19 11:31:13;;;;;;;0.20;0.10;;;;;;;;;;5501256;26;19997;-78
2024/04/19 11:33:39;;;;;;;0.20;0.00;;;;;;;;;;5476368;26;20001;-81
2024/04/19 11:36:09;;;;;;;0.20;0.10;;;;;;;;;;5499106;26;20430;-81
2024/04/19 11:38:36;;;;;;;0.20;0.00;;;;;;;;;;5498971;26;20346;-81
2024/04/19 11:41:02;;;;;;;0.20;0.10;;;;;;;;;;5468672;26;20055;-78
2024/04/19 11:43:29;;;;;;;0.20;0.00;;;;;;;;;;5488154;26;20001;-77
2024/04/19 11:45:56;;;;;;;0.20;0.00;;;;;;;;;;5490614;26;20409;-82
2024/04/19 11:48:23;;;;;;;0.20;0.10;;;;;;;;;;5502059;26;20015;-83
2024/04/19 11:50:49;;;;;;;0.20;0.10;;;;;;;;;;5499568;26;19994;-77
2024/04/19 11:53:15;;;;;;;0.20;0.10;;;;;;;;;;5493716;26;19994;-78
2024/04/19 11:55:41;;;;;;;0.20;0.00;;;;;;;;;;5478501;26;19993;-77
2024/04/19 11:58:07;;;;;;;0.20;0.10;;;;;;;;;;5499224;26;20011;-79
2024/04/19 12:00:33;;;;;;;0.20;0.00;;;;;;;;;;5499584;26;21821;-80
2024/04/19 12:02:59;;;;;;;0.20;0.03;;;;;;;;;;5493138;26;20341;-79
2024/04/19 12:05:26;;;;;;;0.25;0.20;;;;;;;;;;5496542;26;20049;-77
2024/04/19 12:07:52;;;;;;;0.20;0.10;;;;;;;;;;5477419;26;20010;-77
2024/04/19 12:10:18;;;;;;;0.20;0.10;;;;;;;;;;5463103;26;19997;-83
2024/04/19 12:12:44;;;;;;;0.20;0.00;;;;;;;;;;5480705;26;20070;-79
2024/04/19 12:15:10;;;;;;;0.20;0.00;;;;;;;;;;5497514;26;20036;-76
2024/04/19 12:17:36;;;;;;;0.20;0.00;;;;;;;;;;5476742;26;20006;-79
2024/04/19 12:20:03;;;;;;;0.20;0.10;;;;;;;;;;5477601;26;19994;-80
2024/04/19 12:22:29;;;;;;;0.20;0.08;;;;;;;;;;5477214;26;20340;-83
2024/04/19 12:24:56;;;;;;;0.20;0.00;;;;;;;;;;5504652;26;20675;-77
2024/04/19 12:27:22;;;;;;;0.20;0.00;;;;;;;;;;5497090;26;20018;-82
2024/04/19 12:29:48;;;;;;;0.20;0.10;;;;;;;;;;5489035;26;20536;-81
2024/04/19 12:32:14;;;;;;;0.63;0.20;;;;;;;;;;5493907;26;19994;-81
2024/04/19 12:34:43;;;;;;;0.20;0.10;;;;;;;;;;5472849;26;20089;-82
2024/04/19 12:37:09;;;;;;;0.63;0.63;;;;;;;;;;5465120;26;20377;-82
2024/04/19 12:39:36;;;;;;;0.20;0.10;;;;;;;;;;5491471;26;20465;-82
2024/04/19 12:42:05;;;;;;;0.20;0.00;;;;;;;;;;5497755;26;20086;-82
2024/04/19 12:44:31;;;;;;;0.20;0.10;;;;;;;;;;5491036;26;20006;-84
2024/04/19 12:46:57;;;;;;;0.20;0.10;;;;;;;;;;5496761;26;20374;-78
2024/04/19 12:49:24;;;;;;;0.20;0.00;;;;;;;;;;5489460;26;19994;-82
2024/04/19 12:51:50;;;;;;;0.20;0.10;;;;;;;;;;5491432;26;19994;-85
2024/04/19 12:54:18;;;;;;;0.20;0.10;;;;;;;;;;5493099;26;20465;-79
2024/04/19 12:56:46;;;;;;;0.20;0.00;;;;;;;;;;5463132;26;20033;-82
2024/04/19 12:59:12;;;;;;;0.20;0.10;;;;;;;;;;5474477;26;19998;-80
2024/04/19 13:01:38;;;;;;;0.20;0.00;;;;;;;;;;5497030;26;19993;-83
2024/04/19 13:04:05;;;;;;;0.20;0.10;;;;;;;;;;5497262;26;19994;-83
2024/04/19 13:06:34;;;;;;;0.80;0.80;;;;;;;;;;5491624;26;20002;-81
2024/04/19 13:09:00;;;;;;;0.20;0.00;;;;;;;;;;5492816;26;19998;-81
2024/04/19 13:11:26;;;;;;;0.20;0.10;;;;;;;;;;5499489;26;20434;-78
2024/04/19 13:13:53;;;;;;;0.20;0.00;;;;;;;;;;5488306;26;20002;-82
2024/04/19 13:16:22;;;;;;;0.25;0.22;;;;;;;;;;5502601;26;20017;-78
2024/04/19 13:18:48;;;;;;;0.57;0.57;;;;;;;;;;5469311;26;20013;-82
2024/04/19 13:21:14;;;;;;;0.20;0.00;;;;;;;;;;5494451;26;20358;-83
2024/04/19 13:23:42;;;;;;;0.20;0.05;;;;;;;;;;5487528;26;20010;-77
2024/04/19 13:26:09;;;;;;;0.20;0.10;;;;;;;;;;5485754;26;20765;-81
2024/04/19 13:28:38;;;;;;;0.20;0.10;;;;;;;;;;5476815;26;19994;-82
2024/04/19 13:31:05;;;;;;;0.20;0.10;;;;;;;;;;5505301;26;19994;-80
2024/04/19 13:33:31;;;;;;;0.20;0.10;;;;;;;;;;5494413;26;20456;-79
2024/04/19 13:35:57;;;;;;;0.20;0.10;;;;;;;;;;5494478;26;20046;-83
2024/04/19 13:38:23;;;;;;;0.20;0.00;;;;;;;;;;5496591;26;20006;-77
2024/04/19 13:40:49;;;;;;;0.32;0.32;;;;;;;;;;5500712;26;20014;-82
2024/04/19 13:43:15;;;;;;;1.05;0.95;;;;;;;;;;5489806;26;20005;-82
2024/04/19 13:45:41;;;;;;;0.20;0.00;;;;;;;;;;5496290;26;20009;-82
2024/04/19 13:48:08;;;;;;;0.20;0.10;;;;;;;;;;5497346;26;20004;-82
2024/04/19 13:50:34;;;;;;;0.20;0.10;;;;;;;;;;5470135;26;20012;-79
2024/04/19 13:53:04;;;;;;;0.20;0.00;;;;;;;;;;5496279;26;20133;-79
2024/04/19 13:55:30;;;;;;;0.20;0.10;;;;;;;;;;5497902;26;21289;-84
2024/04/19 13:57:56;;;;;;;0.20;0.10;;;;;;;;;;5487789;26;20100;-84
2024/04/19 14:00:22;;;;;;;0.20;0.00;;;;;;;;;;5476641;26;20006;-85
2024/04/19 14:02:48;;;;;;;0.20;0.10;;;;;;;;;;5465039;26;19994;-82
2024/04/19 14:05:14;;;;;;;0.20;0.10;;;;;;;;;;5475186;26;19998;-80
2024/04/19 14:07:41;;;;;;;0.20;0.10;;;;;;;;;;5496011;26;19994;-83
2024/04/19 14:10:07;;;;;;;0.20;0.10;;;;;;;;;;5479519;26;20328;-80
2024/04/19 14:12:33;;;;;;;0.20;0.10;;;;;;;;;;5498760;26;20522;-80
2024/04/19 14:15:00;;;;;;;0.20;0.08;;;;;;;;;;5503426;26;20045;-81
2024/04/19 14:17:26;;;;;;;0.20;0.10;;;;;;;;;;5479974;26;20434;-81
2024/04/19 14:19:54;;;;;;;0.20;0.00;;;;;;;;;;5472568;26;20074;-82
2024/04/19 14:22:20;;;;;;;0.20;0.00;;;;;;;;;;5474336;26;20002;-82
2024/04/19 14:24:47;;;;;;;0.20;0.10;;;;;;;;;;5501529;26;20010;-81
2024/04/19 14:27:13;;;;;;;0.20;0.10;;;;;;;;;;5470597;26;19994;-81
2024/04/19 14:29:39;;;;;;;0.20;0.10;;;;;;;;;;5481420;26;19993;-77
2024/04/19 14:32:05;;;;;;;0.20;0.10;;;;;;;;;;5475522;26;19993;-79
2024/04/19 14:34:31;;;;;;;0.20;0.10;;;;;;;;;;5492624;26;20005;-87
2024/04/19 14:36:57;;;;;;;0.20;0.00;;;;;;;;;;5494783;26;20448;-79
2024/04/19 14:39:23;;;;;;;0.20;0.10;;;;;;;;;;5491747;26;20345;-85
2024/04/19 14:41:50;;;;;;;0.20;0.10;;;;;;;;;;5496054;26;20034;-82
2024/04/19 14:44:16;;;;;;;0.20;0.10;;;;;;;;;;5500939;26;20002;-84
2024/04/19 14:46:44;;;;;;;0.20;0.10;;;;;;;;;;5497972;26;19993;-78